createdAt,value
2018-12-29T00:00:52.348Z,4.17
2018-12-29T00:03:42.099Z,4.33
2018-12-29T00:06:30.914Z,4.35
2018-12-29T00:09:19.631Z,4.36
2018-12-29T00:12:08.701Z,4.33
2018-12-29T00:14:58.775Z,4.44
2018-12-29T00:17:48.796Z,4.40
2018-12-29T00:20:38.396Z,4.29
2018-12-29T00:23:28.568Z,4.35
2018-12-29T00:26:17.239Z,4.44
2018-12-29T00:29:07.139Z,4.38
2018-12-29T00:31:56.572Z,4.35
2018-12-29T00:34:45.493Z,4.38
2018-12-29T00:37:34.839Z,4.37
2018-12-29T00:40:24.116Z,4.32
2018-12-29T00:43:13.309Z,4.29
2018-12-29T00:46:03.671Z,4.48
2018-12-29T00:48:53.097Z,4.42
2018-12-29T00:51:42.522Z,4.43
2018-12-29T00:54:35.678Z,4.37
2018-12-29T00:57:24.566Z,4.34
2018-12-29T01:00:13.845Z,4.57
2018-12-29T01:03:03.821Z,4.47
2018-12-29T01:05:53.109Z,4.27
2018-12-29T01:08:42.770Z,4.30
2018-12-29T01:11:32.332Z,4.35
2018-12-29T01:14:21.571Z,4.33
2018-12-29T01:17:10.659Z,4.16
2018-12-29T01:19:59.697Z,4.07
2018-12-29T01:22:49.674Z,3.92
2018-12-29T01:25:39.650Z,3.86
2018-12-29T01:28:29.446Z,3.77
2018-12-29T01:31:18.889Z,3.80
2018-12-29T01:34:07.749Z,4.09
2018-12-29T01:36:57.222Z,4.29
2018-12-29T01:39:46.584Z,4.47
2018-12-29T01:42:37.228Z,4.45
2018-12-29T01:45:26.915Z,4.31
2018-12-29T01:48:16.816Z,4.37
2018-12-29T01:51:06.589Z,4.50
2018-12-29T01:53:55.192Z,4.51
2018-12-29T01:56:45.944Z,4.51
2018-12-29T01:59:36.041Z,4.54
2018-12-29T02:02:25.419Z,4.65
2018-12-29T02:05:15.769Z,4.61
2018-12-29T02:08:05.172Z,4.62
2018-12-29T02:10:54.795Z,4.60
2018-12-29T02:13:44.331Z,4.63
2018-12-29T02:16:33.824Z,4.73
2018-12-29T02:19:23.068Z,4.62
2018-12-29T02:22:12.622Z,4.69
2018-12-29T02:25:02.359Z,4.75
2018-12-29T02:27:51.410Z,4.69
2018-12-29T02:30:40.819Z,4.60
2018-12-29T02:33:30.223Z,4.57
2018-12-29T02:36:19.678Z,4.55
2018-12-29T02:39:09.205Z,4.47
2018-12-29T02:41:58.616Z,4.26
2018-12-29T02:44:48.073Z,4.10
2018-12-29T02:47:37.868Z,4.17
2018-12-29T02:50:27.165Z,4.10
2018-12-29T02:53:16.633Z,4.01
2018-12-29T02:56:06.268Z,4.07
2018-12-29T02:58:56.023Z,3.95
2018-12-29T03:01:45.354Z,3.69
2018-12-29T03:04:35.864Z,3.49
2018-12-29T03:07:26.087Z,3.30
2018-12-29T03:10:15.188Z,3.27
2018-12-29T03:13:05.242Z,3.20
2018-12-29T03:15:54.808Z,3.13
2018-12-29T03:18:44.674Z,3.35
2018-12-29T03:21:34.042Z,3.36
2018-12-29T03:24:22.995Z,3.48
2018-12-29T03:27:13.202Z,3.69
2018-12-29T03:30:03.652Z,3.56
2018-12-29T03:32:52.949Z,3.39
2018-12-29T03:35:42.639Z,3.27
2018-12-29T03:38:32.005Z,3.23
2018-12-29T03:41:21.387Z,3.43
2018-12-29T03:44:10.632Z,3.77
2018-12-29T03:47:00.313Z,3.91
2018-12-29T03:49:50.041Z,4.05
2018-12-29T03:52:38.979Z,4.11
2018-12-29T03:55:33.165Z,4.01
2018-12-29T03:58:23.248Z,3.93
2018-12-29T04:01:13.047Z,3.62
2018-12-29T04:04:02.807Z,3.33
2018-12-29T04:06:52.503Z,3.21
2018-12-29T04:09:42.189Z,3.26
2018-12-29T04:12:35.328Z,3.14
2018-12-29T04:15:24.734Z,3.33
2018-12-29T04:18:14.517Z,3.61
2018-12-29T04:21:03.871Z,3.76
2018-12-29T04:23:53.178Z,3.76
2018-12-29T04:26:42.781Z,3.68
2018-12-29T04:29:33.155Z,3.66
2018-12-29T04:32:22.668Z,3.63
2018-12-29T04:35:11.762Z,3.33
2018-12-29T04:38:01.114Z,3.45
2018-12-29T04:40:50.434Z,3.51
2018-12-29T04:43:40.471Z,3.53
2018-12-29T04:46:50.710Z,3.47
2018-12-29T04:49:49.618Z,3.46
2018-12-29T04:52:39.183Z,3.55
2018-12-29T04:55:29.696Z,3.47
2018-12-29T04:58:20.085Z,3.48
2018-12-29T05:01:25.848Z,3.51
2018-12-29T05:04:15.517Z,3.60
2018-12-29T05:07:05.091Z,3.52
2018-12-29T05:09:54.557Z,3.45
2018-12-29T05:12:43.820Z,3.54
2018-12-29T05:15:32.904Z,3.70
2018-12-29T05:18:22.165Z,3.71
2018-12-29T05:21:11.537Z,3.69
2018-12-29T05:24:04.136Z,3.67
2018-12-29T05:26:53.448Z,3.52
2018-12-29T05:29:42.400Z,3.60
2018-12-29T05:32:31.766Z,3.56
2018-12-29T05:35:21.440Z,3.61
2018-12-29T05:38:11.369Z,3.69
2018-12-29T05:41:00.410Z,3.66
2018-12-29T05:43:50.805Z,3.62
2018-12-29T05:46:40.133Z,3.59
2018-12-29T05:49:29.502Z,3.59
2018-12-29T05:52:19.268Z,3.49
2018-12-29T05:55:08.792Z,3.40
2018-12-29T05:57:58.674Z,3.38
2018-12-29T06:00:48.814Z,3.45
2018-12-29T06:03:38.126Z,3.47
2018-12-29T06:06:27.695Z,3.45
2018-12-29T06:09:17.392Z,3.40
2018-12-29T06:12:06.800Z,3.42
2018-12-29T06:14:57.704Z,3.39
2018-12-29T06:17:46.864Z,3.37
2018-12-29T06:20:36.474Z,3.35
2018-12-29T06:23:25.735Z,3.30
2018-12-29T06:26:15.868Z,3.36
2018-12-29T06:29:04.876Z,3.35
2018-12-29T06:31:54.414Z,3.42
2018-12-29T06:34:43.807Z,3.42
2018-12-29T06:37:33.672Z,3.53
2018-12-29T06:40:22.991Z,3.62
2018-12-29T06:43:12.987Z,3.58
2018-12-29T06:46:02.065Z,3.68
2018-12-29T06:48:52.562Z,3.79
2018-12-29T06:51:42.161Z,3.83
2018-12-29T06:54:31.442Z,3.82
2018-12-29T06:57:21.212Z,3.79
2018-12-29T07:00:10.666Z,3.87
2018-12-29T07:02:59.949Z,3.89
2018-12-29T07:05:49.514Z,3.97
2018-12-29T07:08:39.604Z,3.97
2018-12-29T07:11:28.484Z,3.97
2018-12-29T07:14:18.839Z,3.97
2018-12-29T07:17:09.211Z,3.97
2018-12-29T07:19:59.482Z,4.13
2018-12-29T07:22:48.729Z,4.36
2018-12-29T07:25:38.270Z,4.36
2018-12-29T07:28:27.195Z,4.23
2018-12-29T07:31:16.704Z,4.29
2018-12-29T07:34:06.849Z,4.22
2018-12-29T07:36:56.496Z,4.32
2018-12-29T07:39:46.121Z,4.38
2018-12-29T07:42:36.210Z,4.39
2018-12-29T07:45:25.627Z,4.40
2018-12-29T07:48:14.978Z,4.34
2018-12-29T07:51:03.923Z,4.50
2018-12-29T07:53:53.699Z,4.49
2018-12-29T07:56:43.427Z,4.62
2018-12-29T07:59:34.706Z,4.68
2018-12-29T08:02:24.664Z,4.78
2018-12-29T08:05:14.342Z,4.72
2018-12-29T08:08:09.362Z,4.61
2018-12-29T08:10:58.754Z,4.82
2018-12-29T08:13:48.791Z,4.91
2018-12-29T08:16:37.678Z,4.97
2018-12-29T08:19:27.124Z,4.94
2018-12-29T08:22:16.353Z,4.81
2018-12-29T08:25:07.301Z,4.90
2018-12-29T08:27:56.285Z,4.87
2018-12-29T08:30:49.896Z,4.78
2018-12-29T08:33:44.095Z,5.10
2018-12-29T08:36:33.400Z,5.07
2018-12-29T08:39:23.184Z,5.01
2018-12-29T08:42:12.505Z,4.90
2018-12-29T08:45:02.310Z,5.01
2018-12-29T08:47:52.073Z,5.03
2018-12-29T08:50:42.669Z,5.21
2018-12-29T08:53:34.402Z,5.18
2018-12-29T08:56:24.704Z,5.25
2018-12-29T08:59:14.190Z,5.40
2018-12-29T09:02:03.707Z,5.62
2018-12-29T09:04:54.408Z,5.30
2018-12-29T09:07:43.883Z,5.19
2018-12-29T09:10:35.622Z,5.07
2018-12-29T09:13:26.946Z,5.22
2018-12-29T09:16:17.094Z,5.41
2018-12-29T09:19:10.303Z,5.48
2018-12-29T09:22:03.006Z,5.47
2018-12-29T09:24:52.878Z,5.69
2018-12-29T09:27:42.281Z,5.25
2018-12-29T09:30:55.890Z,5.19
2018-12-29T09:33:45.327Z,5.29
2018-12-29T09:36:40.035Z,5.09
2018-12-29T09:39:29.675Z,5.13
2018-12-29T09:42:18.645Z,5.16
2018-12-29T09:45:07.827Z,5.15
2018-12-29T09:48:04.372Z,5.07
2018-12-29T09:50:53.627Z,5.18
2018-12-29T09:53:43.039Z,5.23
2018-12-29T09:56:32.600Z,5.35
2018-12-29T09:59:22.135Z,5.17
2018-12-29T10:02:11.990Z,5.26
2018-12-29T10:05:01.566Z,5.49
2018-12-29T10:07:51.352Z,5.47
2018-12-29T10:10:40.874Z,5.51
2018-12-29T10:13:30.712Z,5.49
2018-12-29T10:16:20.119Z,5.26
2018-12-29T10:19:09.768Z,5.06
2018-12-29T10:21:59.429Z,5.04
2018-12-29T10:24:48.971Z,4.95
2018-12-29T10:27:38.310Z,4.84
2018-12-29T10:30:28.348Z,4.74
2018-12-29T10:33:17.306Z,5.06
2018-12-29T10:36:06.691Z,4.90
2018-12-29T10:38:56.842Z,4.68
2018-12-29T10:41:46.872Z,4.78
2018-12-29T10:44:36.049Z,4.91
2018-12-29T10:47:25.472Z,4.85
2018-12-29T10:50:18.132Z,4.86
2018-12-29T10:53:07.380Z,4.80
2018-12-29T10:55:57.141Z,4.79
2018-12-29T10:58:46.660Z,4.66
2018-12-29T11:01:43.258Z,4.50
2018-12-29T11:04:35.282Z,4.68
2018-12-29T11:07:24.663Z,4.65
2018-12-29T11:10:13.796Z,4.75
2018-12-29T11:13:07.020Z,4.89
2018-12-29T11:15:57.112Z,4.83
2018-12-29T11:18:48.376Z,5.06
2018-12-29T11:21:38.871Z,5.10
2018-12-29T11:24:28.313Z,5.13
2018-12-29T11:27:17.711Z,5.27
2018-12-29T11:30:10.388Z,5.47
2018-12-29T11:32:59.605Z,5.54
2018-12-29T11:35:49.009Z,5.73
2018-12-29T11:38:39.544Z,5.81
2018-12-29T11:41:28.685Z,5.86
2018-12-29T11:44:18.683Z,5.72
2018-12-29T11:47:08.116Z,5.74
2018-12-29T11:49:57.738Z,5.86
2018-12-29T11:52:46.950Z,5.66
2018-12-29T11:55:37.259Z,5.66
2018-12-29T11:58:27.161Z,5.43
2018-12-29T12:01:16.520Z,5.28
2018-12-29T12:04:06.468Z,5.23
2018-12-29T12:06:59.774Z,5.43
2018-12-29T12:09:48.607Z,5.41
2018-12-29T12:12:37.466Z,5.89
2018-12-29T12:15:26.414Z,5.85
2018-12-29T12:18:17.134Z,5.38
2018-12-29T12:21:06.688Z,5.48
2018-12-29T12:23:55.907Z,5.27
2018-12-29T12:26:51.081Z,5.42
2018-12-29T12:29:41.646Z,5.39
2018-12-29T12:32:30.760Z,5.36
2018-12-29T12:35:20.052Z,5.41
2018-12-29T12:38:09.631Z,5.40
2018-12-29T12:40:59.400Z,5.39
2018-12-29T12:43:50.826Z,5.35
2018-12-29T12:46:40.816Z,5.17
2018-12-29T12:49:30.550Z,5.52
2018-12-29T12:52:11.390Z,5.56
2018-12-29T12:54:42.391Z,5.91
2018-12-29T12:57:14.102Z,5.94
2018-12-29T12:59:45.542Z,6.56
2018-12-29T13:02:17.024Z,6.86
2018-12-29T13:04:48.899Z,6.13
2018-12-29T13:07:20.477Z,6.44
2018-12-29T13:09:51.457Z,6.41
2018-12-29T13:12:24.438Z,6.76
2018-12-29T13:14:56.486Z,6.63
2018-12-29T13:17:30.588Z,6.91
2018-12-29T13:20:02.245Z,7.33
2018-12-29T13:22:33.360Z,6.52
2018-12-29T13:25:04.863Z,6.81
2018-12-29T13:27:35.779Z,6.18
2018-12-29T13:30:07.954Z,5.92
2018-12-29T13:32:38.926Z,5.61
2018-12-29T13:35:10.505Z,5.20
2018-12-29T13:37:41.580Z,4.76
2018-12-29T13:40:12.775Z,4.40
2018-12-29T13:42:43.992Z,4.31
2018-12-29T13:45:15.426Z,4.09
2018-12-29T13:47:47.164Z,3.97
2018-12-29T13:50:18.221Z,3.97
2018-12-29T13:52:49.172Z,3.66
2018-12-29T13:55:20.728Z,3.63
2018-12-29T13:57:51.983Z,3.53
2018-12-29T14:00:23.409Z,3.44
2018-12-29T14:02:55.647Z,3.35
2018-12-29T14:05:27.500Z,3.33
2018-12-29T14:08:01.510Z,3.27
2018-12-29T14:10:32.531Z,3.14
2018-12-29T14:13:03.606Z,3.06
2018-12-29T14:15:34.969Z,2.95
2018-12-29T14:18:05.886Z,2.97
2018-12-29T14:20:37.386Z,2.91
2018-12-29T14:23:08.364Z,2.91
2018-12-29T14:25:40.260Z,2.84
2018-12-29T14:28:12.288Z,2.79
2018-12-29T14:30:43.223Z,2.86
2018-12-29T14:33:14.204Z,2.84
2018-12-29T14:35:45.226Z,2.73
2018-12-29T14:38:17.131Z,2.79
2018-12-29T14:40:48.140Z,2.70
2018-12-29T14:43:19.164Z,2.68
2018-12-29T14:45:50.218Z,2.54
2018-12-29T14:48:21.744Z,2.56
2018-12-29T14:50:53.028Z,2.61
2018-12-29T14:53:24.405Z,2.58
2018-12-29T14:55:55.354Z,2.55
2018-12-29T14:58:26.738Z,2.53
2018-12-29T15:00:57.656Z,2.44
2018-12-29T15:03:29.263Z,2.39
2018-12-29T15:06:00.331Z,2.33
2018-12-29T15:08:31.833Z,2.32
2018-12-29T15:11:03.147Z,2.28
2018-12-29T15:13:37.502Z,2.15
2018-12-29T15:16:08.970Z,2.17
2018-12-29T15:18:44.037Z,2.16
2018-12-29T15:21:12.794Z,2.07
2018-12-29T15:23:43.809Z,2.16
2018-12-29T15:26:15.400Z,2.13
2018-12-29T15:28:46.681Z,1.99
2018-12-29T15:31:17.956Z,1.91
2018-12-29T15:33:49.133Z,1.87
2018-12-29T15:36:21.465Z,1.85
2018-12-29T15:38:52.820Z,1.76
2018-12-29T15:41:25.784Z,1.87
2018-12-29T15:43:57.440Z,1.76
2018-12-29T15:46:28.588Z,1.81
2018-12-29T15:49:02.751Z,1.92
2018-12-29T15:51:33.682Z,1.80
2018-12-29T15:54:04.984Z,1.94
2018-12-29T15:56:37.781Z,1.85
2018-12-29T15:59:08.828Z,1.93
2018-12-29T16:01:40.241Z,1.81
2018-12-29T16:04:11.340Z,1.68
2018-12-29T16:06:42.377Z,1.71
2018-12-29T16:09:13.944Z,1.65
2018-12-29T16:11:45.767Z,1.71
2018-12-29T16:14:17.394Z,1.77
2018-12-29T16:16:49.051Z,1.65
2018-12-29T16:19:20.552Z,1.73
2018-12-29T16:21:51.594Z,1.71
2018-12-29T16:24:23.181Z,1.73
2018-12-29T16:26:54.647Z,1.71
2018-12-29T16:29:26.111Z,1.73
2018-12-29T16:31:58.111Z,1.84
2018-12-29T16:34:29.222Z,1.82
2018-12-29T16:37:00.538Z,1.68
2018-12-29T16:39:32.073Z,1.67
2018-12-29T16:42:03.302Z,1.62
2018-12-29T16:44:34.779Z,1.57
2018-12-29T16:47:05.962Z,1.53
2018-12-29T16:49:38.621Z,1.46
2018-12-29T16:52:09.949Z,1.56
2018-12-29T16:54:42.688Z,1.50
2018-12-29T16:57:13.919Z,1.59
2018-12-29T16:59:45.799Z,1.63
2018-12-29T17:02:18.272Z,1.65
2018-12-29T17:04:49.709Z,1.55
2018-12-29T17:07:21.720Z,1.39
2018-12-29T17:09:53.259Z,1.63
2018-12-29T17:12:27.896Z,1.43
2018-12-29T17:14:58.978Z,1.36
2018-12-29T17:17:29.886Z,1.19
2018-12-29T17:20:00.936Z,1.04
2018-12-29T17:22:32.134Z,1.16
2018-12-29T17:25:03.153Z,1.17
2018-12-29T17:27:34.880Z,0.98
2018-12-29T17:30:06.492Z,1.21
2018-12-29T17:32:38.109Z,1.18
2018-12-29T17:35:09.699Z,1.11
2018-12-29T17:37:40.715Z,1.12
2018-12-29T17:40:12.169Z,0.92
2018-12-29T17:42:43.410Z,1.01
2018-12-29T17:45:16.676Z,0.98
2018-12-29T17:47:48.868Z,1.07
2018-12-29T17:50:25.563Z,1.02
2018-12-29T17:52:56.747Z,0.96
2018-12-29T17:55:28.255Z,0.90
2018-12-29T17:57:59.870Z,0.85
2018-12-29T18:00:31.220Z,0.87
2018-12-29T18:03:02.223Z,0.81
2018-12-29T18:05:34.647Z,0.71
2018-12-29T18:08:06.652Z,0.83
2018-12-29T18:10:38.122Z,0.77
2018-12-29T18:13:14.255Z,0.75
2018-12-29T18:15:48.380Z,0.77
2018-12-29T18:18:21.226Z,0.49
2018-12-29T18:20:53.036Z,0.56
2018-12-29T18:23:33.516Z,0.61
2018-12-29T18:26:18.249Z,0.60
2018-12-29T18:28:57.248Z,0.53
2018-12-29T18:31:34.834Z,0.26
2018-12-29T18:34:12.411Z,0.15
2018-12-29T18:36:54.352Z,0.18
2018-12-29T18:39:31.178Z,-0.16
2018-12-29T18:42:17.268Z,-0.03
2018-12-29T18:44:58.754Z,-0.04
2018-12-29T18:47:39.494Z,-0.18
2018-12-29T18:50:21.314Z,-0.35
2018-12-29T18:53:01.859Z,-0.46
2018-12-29T18:55:49.602Z,-0.23
2018-12-29T18:58:26.001Z,-0.06
2018-12-29T19:01:00.670Z,-0.46
2018-12-29T19:03:36.114Z,-0.47
2018-12-29T19:06:10.232Z,-0.37
2018-12-29T19:08:43.358Z,-0.22
2018-12-29T19:11:18.928Z,-0.23
2018-12-29T19:13:52.463Z,-0.08
2018-12-29T19:16:29.292Z,0.03
2018-12-29T19:19:04.660Z,0.07
2018-12-29T19:21:37.133Z,-0.04
2018-12-29T19:24:09.226Z,-0.15
2018-12-29T19:26:41.581Z,-0.17
2018-12-29T19:29:13.011Z,-0.15
2018-12-29T19:31:45.334Z,-0.31
2018-12-29T19:34:17.358Z,-0.43
2018-12-29T19:36:50.237Z,-0.41
2018-12-29T19:39:21.821Z,-0.44
2018-12-29T19:41:57.320Z,-0.35
2018-12-29T19:44:29.150Z,-0.36
2018-12-29T19:47:00.960Z,-0.47
2018-12-29T19:49:32.432Z,-0.40
2018-12-29T19:52:04.332Z,-0.46
2018-12-29T19:54:35.505Z,-0.59
2018-12-29T19:57:07.329Z,-0.53
2018-12-29T19:59:39.023Z,-0.50
2018-12-29T20:02:13.463Z,-0.51
2018-12-29T20:04:45.139Z,-0.67
2018-12-29T20:07:17.576Z,-0.65
2018-12-29T20:09:48.839Z,-0.67
2018-12-29T20:12:20.302Z,-0.65
2018-12-29T20:14:51.968Z,-0.55
2018-12-29T20:17:26.304Z,-0.37
2018-12-29T20:20:01.549Z,-0.22
2018-12-29T20:22:30.586Z,-0.22
2018-12-29T20:25:02.114Z,-0.24
2018-12-29T20:27:36.579Z,0.59
2018-12-29T20:30:09.854Z,0.59
2018-12-29T20:32:40.855Z,0.48
2018-12-29T20:35:11.816Z,0.26
2018-12-29T20:37:43.032Z,0.23
2018-12-29T20:40:15.254Z,0.06
2018-12-29T20:42:46.765Z,-0.14
2018-12-29T20:45:17.949Z,-0.19
2018-12-29T20:47:48.925Z,-0.17
2018-12-29T20:50:20.068Z,-0.48
2018-12-29T20:52:51.529Z,-0.21
2018-12-29T20:55:23.190Z,-0.30
2018-12-29T20:57:54.664Z,-0.32
2018-12-29T21:00:44.635Z,-0.45
2018-12-29T21:03:34.662Z,-0.55
2018-12-29T21:06:24.761Z,-0.42
2018-12-29T21:09:14.607Z,-0.33
2018-12-29T21:12:05.575Z,-0.25
2018-12-29T21:14:55.517Z,-0.36
2018-12-29T21:17:46.241Z,-0.41
2018-12-29T21:20:36.495Z,-0.36
2018-12-29T21:23:26.488Z,-0.60
2018-12-29T21:26:16.880Z,-0.82
2018-12-29T21:29:06.138Z,-0.76
2018-12-29T21:31:55.316Z,-0.78
2018-12-29T21:34:44.887Z,-0.92
2018-12-29T21:37:36.516Z,-0.87
2018-12-29T21:40:26.284Z,-0.96
2018-12-29T21:43:15.998Z,-1.01
2018-12-29T21:46:05.494Z,-0.89
2018-12-29T21:49:00.502Z,-0.97
2018-12-29T21:51:53.215Z,-1.01
2018-12-29T21:54:54.048Z,-0.99
2018-12-29T21:57:50.159Z,-1.04
2018-12-29T22:01:00.889Z,-1.07
2018-12-29T22:03:59.523Z,-1.16
2018-12-29T22:07:06.220Z,-1.15
2018-12-29T22:09:57.368Z,-0.98
2018-12-29T22:13:03.581Z,-1.12
2018-12-29T22:16:05.158Z,-1.15
2018-12-29T22:19:02.387Z,-1.07
2018-12-29T22:21:55.092Z,-1.20
2018-12-29T22:24:53.080Z,-1.26
2018-12-29T22:27:51.898Z,-1.29
2018-12-29T22:31:01.729Z,-1.21
2018-12-29T22:33:59.050Z,-1.15
2018-12-29T22:37:05.231Z,-1.18
2018-12-29T22:39:55.937Z,-1.23
2018-12-29T22:42:48.088Z,-1.34
2018-12-29T22:45:39.212Z,-1.28
2018-12-29T22:48:36.282Z,-1.26
2018-12-29T22:51:31.296Z,-1.39
2018-12-29T22:54:26.983Z,-1.42
2018-12-29T22:57:18.419Z,-1.71
2018-12-29T23:00:13.885Z,-1.73
2018-12-29T23:03:09.672Z,-1.67
2018-12-29T23:06:08.289Z,-1.80
2018-12-29T23:09:00.454Z,-2.46
2018-12-29T23:12:00.939Z,-2.27
2018-12-29T23:14:54.510Z,-2.54
2018-12-29T23:17:49.093Z,-2.49
2018-12-29T23:20:48.817Z,-2.28
2018-12-29T23:23:35.488Z,-2.38
2018-12-29T23:26:24.998Z,-2.48
2018-12-29T23:29:14.501Z,-2.37
2018-12-29T23:32:04.343Z,-2.36
2018-12-29T23:34:59.244Z,-2.33
2018-12-29T23:37:48.801Z,-2.28
2018-12-29T23:40:39.851Z,-2.20
2018-12-29T23:43:29.709Z,-2.13
2018-12-29T23:46:18.711Z,-2.29
2018-12-29T23:49:08.528Z,-2.42
2018-12-29T23:51:58.532Z,-2.33
2018-12-29T23:54:47.970Z,-2.26
2018-12-29T23:57:38.214Z,-2.22
